createdAt,value
2018-12-11T00:00:31.470Z,12.43
2018-12-11T00:03:02.615Z,14.97
2018-12-11T00:05:33.432Z,11.70
2018-12-11T00:08:04.299Z,11.50
2018-12-11T00:10:38.110Z,14.00
2018-12-11T00:13:09.263Z,11.10
2018-12-11T00:15:40.184Z,7.83
2018-12-11T00:18:11.302Z,12.73
2018-12-11T00:20:41.919Z,11.17
2018-12-11T00:23:12.860Z,10.50
2018-12-11T00:25:43.575Z,19.67
2018-12-11T00:28:14.506Z,9.03
2018-12-11T00:30:45.507Z,7.10
2018-12-11T00:33:16.454Z,14.00
2018-12-11T00:35:50.266Z,16.10
2018-12-11T00:38:21.601Z,12.43
2018-12-11T00:40:52.142Z,5.30
2018-12-11T00:43:23.856Z,9.07
2018-12-11T00:45:54.479Z,14.03
2018-12-11T00:48:25.604Z,12.03
2018-12-11T00:50:56.559Z,10.50
2018-12-11T00:53:27.529Z,15.97
2018-12-11T00:55:58.071Z,15.43
2018-12-11T00:58:32.071Z,14.27
2018-12-11T01:01:05.959Z,14.53
2018-12-11T01:03:37.321Z,13.63
2018-12-11T01:08:40.273Z,16.20
2018-12-11T01:11:11.213Z,11.23
2018-12-11T01:13:42.235Z,9.67
2018-12-11T01:16:13.138Z,21.80
2018-12-11T01:18:44.182Z,16.13
2018-12-11T01:21:14.797Z,28.70
2018-12-11T01:23:46.046Z,16.57
2018-12-11T01:26:17.104Z,20.10
2018-12-11T01:28:54.948Z,14.63
2018-12-11T01:31:26.059Z,13.37
2018-12-11T01:33:57.173Z,11.70
2018-12-11T01:36:28.279Z,11.00
2018-12-11T01:38:59.728Z,14.07
2018-12-11T01:41:30.562Z,14.70
2018-12-11T01:44:04.285Z,10.10
2018-12-11T01:46:35.411Z,15.63
2018-12-11T01:49:06.583Z,18.87
2018-12-11T01:51:37.307Z,14.87
2018-12-11T01:54:08.074Z,11.83
2018-12-11T01:56:39.022Z,19.33
2018-12-11T01:59:10.057Z,11.97
2018-12-11T02:01:43.079Z,12.37
2018-12-11T02:04:13.952Z,11.20
2018-12-11T02:09:16.964Z,9.10
2018-12-11T02:11:48.012Z,12.07
2018-12-11T02:14:18.918Z,10.93
2018-12-11T02:16:49.761Z,6.93
2018-12-11T02:19:20.959Z,12.00
2018-12-11T02:21:51.767Z,6.90
2018-12-11T02:24:26.303Z,16.60
2018-12-11T02:29:53.024Z,8.37
2018-12-11T02:32:23.847Z,4.10
2018-12-11T02:34:54.872Z,12.40
2018-12-11T02:37:25.568Z,8.47
2018-12-11T02:39:56.607Z,7.17
2018-12-11T02:42:27.613Z,4.63
2018-12-11T02:44:58.596Z,11.47
2018-12-11T02:47:29.571Z,5.43
2018-12-11T02:50:00.495Z,12.10
2018-12-11T02:52:31.495Z,10.33
2018-12-11T02:55:02.416Z,6.50
2018-12-11T02:57:36.410Z,7.00
2018-12-11T03:00:08.184Z,15.97
2018-12-11T03:02:46.308Z,8.60
2018-12-11T03:05:33.209Z,19.23
2018-12-11T03:10:49.377Z,7.07
2018-12-11T03:13:23.772Z,7.17
2018-12-11T03:15:54.907Z,6.30
2018-12-11T03:18:26.239Z,18.57
2018-12-11T03:20:56.968Z,9.67
2018-12-11T03:23:28.195Z,8.30
2018-12-11T03:26:02.528Z,11.60
2018-12-11T03:28:38.530Z,12.50
2018-12-11T03:31:10.193Z,14.67
2018-12-11T03:33:41.609Z,14.27
2018-12-11T03:36:12.774Z,2.67
2018-12-11T03:38:43.690Z,11.20
2018-12-11T03:41:14.943Z,7.77
2018-12-11T03:43:48.483Z,2.13
2018-12-11T03:46:19.430Z,12.50
2018-12-11T03:48:50.674Z,13.90
2018-12-11T03:51:21.537Z,7.60
2018-12-11T03:54:01.831Z,4.13
2018-12-11T03:56:35.149Z,2.40
2018-12-11T03:59:06.260Z,6.63
2018-12-11T04:01:37.118Z,6.10
2018-12-11T04:04:10.831Z,2.10
2018-12-11T04:06:44.942Z,3.37
2018-12-11T04:09:15.940Z,2.63
2018-12-11T04:11:46.844Z,3.90
2018-12-11T04:14:18.370Z,4.90
2018-12-11T04:16:52.203Z,7.07
2018-12-11T04:19:34.782Z,2.77
2018-12-11T04:22:08.291Z,6.63
2018-12-11T04:24:39.448Z,5.03
2018-12-11T04:27:15.672Z,6.13
2018-12-11T04:29:46.602Z,2.60
2018-12-11T04:32:22.509Z,13.00
2018-12-11T04:34:53.624Z,6.10
2018-12-11T04:37:29.376Z,7.43
2018-12-11T04:40:00.716Z,6.43
2018-12-11T04:42:34.226Z,5.27
2018-12-11T04:45:05.390Z,4.50
2018-12-11T04:47:35.942Z,2.97
2018-12-11T04:50:09.403Z,2.40
2018-12-11T04:52:40.356Z,1.70
2018-12-11T04:55:13.886Z,2.50
2018-12-11T04:57:45.438Z,6.63
2018-12-11T05:00:16.079Z,1.47
2018-12-11T05:02:47.431Z,7.13
2018-12-11T05:05:21.423Z,1.67
2018-12-11T05:07:52.835Z,6.67
2018-12-11T05:12:55.544Z,3.23
2018-12-11T05:15:29.249Z,6.43
2018-12-11T05:18:00.130Z,1.53
2018-12-11T05:20:33.551Z,10.00
2018-12-11T05:23:05.174Z,11.63
2018-12-11T05:25:38.640Z,2.27
2018-12-11T05:28:19.215Z,7.33
2018-12-11T05:30:50.620Z,7.30
2018-12-11T05:33:21.575Z,2.93
2018-12-11T05:35:52.515Z,4.60
2018-12-11T05:38:23.375Z,2.87
2018-12-11T05:40:54.436Z,3.17
2018-12-11T05:43:25.328Z,2.63
2018-12-11T05:45:58.788Z,4.63
2018-12-11T05:48:29.721Z,3.33
2018-12-11T05:51:03.626Z,5.43
2018-12-11T05:53:34.766Z,2.97
2018-12-11T05:56:08.669Z,7.27
2018-12-11T05:58:39.727Z,3.60
2018-12-11T06:01:10.613Z,7.07
2018-12-11T06:03:41.668Z,2.80
2018-12-11T06:06:13.083Z,5.97
2018-12-11T06:08:44.252Z,4.60
2018-12-11T06:13:47.465Z,3.70
2018-12-11T06:16:19.459Z,1.80
2018-12-11T06:18:50.791Z,6.13
2018-12-11T06:21:21.885Z,3.43
2018-12-11T06:23:52.757Z,16.40
2018-12-11T06:26:23.659Z,3.87
2018-12-11T06:28:54.693Z,7.13
2018-12-11T06:31:28.504Z,5.40
2018-12-11T06:33:59.550Z,2.00
2018-12-11T06:36:30.495Z,9.50
2018-12-11T06:39:05.242Z,1.80
2018-12-11T06:41:36.175Z,1.83
2018-12-11T06:44:07.095Z,3.17
2018-12-11T06:46:40.554Z,2.60
2018-12-11T06:49:11.600Z,2.40
2018-12-11T06:51:47.272Z,1.83
2018-12-11T06:54:18.331Z,1.13
2018-12-11T06:56:49.131Z,3.77
2018-12-11T06:59:20.398Z,1.00
2018-12-11T07:01:54.084Z,4.10
2018-12-11T07:04:31.999Z,1.00
2018-12-11T07:07:03.160Z,4.80
2018-12-11T07:09:37.539Z,4.03
2018-12-11T07:12:08.776Z,2.10
2018-12-11T07:14:39.833Z,2.20
2018-12-11T07:17:10.769Z,4.73
2018-12-11T07:19:41.632Z,1.77
2018-12-11T07:22:12.552Z,2.10
2018-12-11T07:24:43.603Z,3.17
2018-12-11T07:27:14.291Z,3.13
2018-12-11T07:29:45.227Z,4.17
2018-12-11T07:32:19.041Z,5.17
2018-12-11T07:34:50.060Z,3.00
2018-12-11T07:37:20.856Z,3.73
2018-12-11T07:39:51.992Z,1.93
2018-12-11T07:42:22.820Z,1.63
2018-12-11T07:44:54.070Z,5.97
2018-12-11T07:47:24.786Z,3.20
2018-12-11T07:49:58.483Z,3.60
2018-12-11T07:52:29.379Z,1.90
2018-12-11T07:55:00.364Z,5.33
2018-12-11T07:57:31.370Z,3.23
2018-12-11T08:00:05.934Z,5.33
2018-12-11T08:02:37.367Z,1.93
2018-12-11T08:05:11.475Z,0.97
2018-12-11T08:07:42.606Z,3.73
2018-12-11T08:10:13.863Z,3.60
2018-12-11T08:12:44.863Z,1.60
2018-12-11T08:15:15.488Z,2.77
2018-12-11T08:17:46.412Z,1.67
2018-12-11T08:20:17.431Z,2.20
2018-12-11T08:22:48.223Z,2.00
2018-12-11T08:25:19.284Z,1.13
2018-12-11T08:27:50.338Z,3.07
2018-12-11T08:30:21.391Z,9.53
2018-12-11T08:32:52.014Z,6.03
2018-12-11T08:35:20.931Z,1.20
2018-12-11T08:37:49.879Z,4.07
2018-12-11T08:40:20.868Z,2.70
2018-12-11T08:42:54.655Z,1.83
2018-12-11T08:45:25.563Z,3.03
2018-12-11T08:47:56.725Z,4.03
2018-12-11T08:50:27.683Z,7.93
2018-12-11T08:53:01.516Z,1.37
2018-12-11T08:55:32.428Z,1.47
2018-12-11T09:00:59.103Z,0.83
2018-12-11T09:03:32.771Z,3.10
2018-12-11T09:06:03.704Z,0.90
2018-12-11T09:08:34.414Z,0.80
2018-12-11T09:11:08.238Z,1.00
2018-12-11T09:13:39.343Z,2.43
2018-12-11T09:16:10.378Z,4.23
2018-12-11T09:18:41.497Z,4.73
2018-12-11T09:24:07.654Z,2.70
2018-12-11T09:26:38.638Z,2.80
2018-12-11T09:29:12.037Z,1.70
2018-12-11T09:31:46.135Z,2.30
2018-12-11T09:34:18.272Z,1.50
2018-12-11T09:36:49.318Z,2.07
2018-12-11T09:39:23.010Z,1.27
2018-12-11T09:41:56.889Z,0.70
2018-12-11T09:44:27.934Z,3.10
2018-12-11T09:46:58.683Z,2.97
2018-12-11T09:49:30.123Z,2.90
2018-12-11T09:51:58.879Z,6.10
2018-12-11T09:54:29.423Z,2.50
2018-12-11T09:57:03.028Z,5.97
2018-12-11T09:59:34.360Z,3.23
2018-12-11T10:02:05.280Z,4.30
2018-12-11T10:04:36.474Z,2.30
2018-12-11T10:07:07.614Z,0.80
2018-12-11T10:09:38.527Z,6.30
2018-12-11T10:12:09.851Z,3.30
2018-12-11T10:14:39.288Z,1.90
2018-12-11T10:17:09.928Z,4.17
2018-12-11T10:19:45.337Z,1.27
2018-12-11T10:22:16.703Z,4.17
2018-12-11T10:24:48.235Z,1.53
2018-12-11T10:27:23.057Z,5.13
2018-12-11T10:29:53.853Z,3.13
2018-12-11T10:32:27.811Z,0.90
2018-12-11T10:35:01.885Z,1.37
2018-12-11T10:37:33.418Z,3.40
2018-12-11T10:40:19.846Z,3.43
2018-12-11T10:42:51.702Z,6.47
2018-12-11T10:45:27.944Z,4.93
2018-12-11T10:48:01.843Z,1.00
2018-12-11T10:50:33.128Z,0.70
2018-12-11T10:53:06.675Z,1.90
2018-12-11T10:55:38.083Z,6.23
2018-12-11T10:58:12.516Z,1.80
2018-12-11T11:00:48.852Z,1.87
2018-12-11T11:03:20.607Z,3.03
2018-12-11T11:05:49.447Z,3.27
2018-12-11T11:08:20.466Z,1.60
2018-12-11T11:10:57.957Z,2.50
2018-12-11T11:13:25.578Z,0.73
2018-12-11T11:15:53.179Z,2.10
2018-12-11T11:18:20.802Z,2.13
2018-12-11T11:20:48.390Z,1.13
2018-12-11T11:23:15.976Z,1.13
2018-12-11T11:25:43.587Z,5.10
2018-12-11T11:28:11.176Z,2.63
2018-12-11T11:30:38.784Z,2.63
2018-12-11T11:33:06.366Z,2.30
2018-12-11T11:35:33.968Z,1.67
2018-12-11T11:38:01.554Z,0.80
2018-12-11T11:40:29.157Z,2.97
2018-12-11T11:42:56.736Z,3.73
2018-12-11T11:45:24.337Z,1.73
2018-12-11T11:47:51.919Z,2.03
2018-12-11T11:50:19.922Z,5.37
2018-12-11T11:52:47.503Z,1.30
2018-12-11T11:55:15.107Z,4.57
2018-12-11T11:57:42.688Z,2.20
2018-12-11T12:00:12.350Z,1.13
2018-12-11T12:02:39.935Z,3.80
2018-12-11T12:05:07.535Z,2.10
2018-12-11T12:07:35.124Z,1.90
2018-12-11T12:10:02.889Z,2.40
2018-12-11T12:12:30.473Z,4.53
2018-12-11T12:14:58.084Z,3.33
2018-12-11T12:17:25.665Z,7.40
2018-12-11T12:19:53.267Z,2.67
2018-12-11T12:22:21.444Z,3.40
2018-12-11T12:24:49.211Z,1.00
2018-12-11T12:27:16.798Z,6.90
2018-12-11T12:29:44.402Z,3.73
2018-12-11T12:32:11.982Z,1.93
2018-12-11T12:34:39.698Z,1.37
2018-12-11T12:37:07.279Z,1.50
2018-12-11T12:39:34.861Z,4.00
2018-12-11T12:42:02.472Z,5.43
2018-12-11T12:44:30.056Z,1.53
2018-12-11T12:46:57.658Z,2.23
2018-12-11T12:49:25.243Z,5.17
2018-12-11T12:51:52.857Z,1.73
2018-12-11T12:54:20.438Z,3.30
2018-12-11T12:56:49.890Z,1.73
2018-12-11T12:59:23.252Z,3.30
2018-12-11T13:01:54.852Z,8.77
2018-12-11T13:04:29.125Z,2.87
2018-12-11T13:06:57.953Z,3.57
2018-12-11T13:09:25.543Z,2.77
2018-12-11T13:11:53.154Z,2.80
2018-12-11T13:14:20.740Z,4.70
2018-12-11T13:16:48.350Z,3.03
2018-12-11T13:19:15.945Z,2.60
2018-12-11T13:21:43.564Z,4.97
2018-12-11T13:24:11.152Z,5.93
2018-12-11T13:26:38.763Z,1.37
2018-12-11T13:29:09.693Z,5.67
2018-12-11T13:31:40.615Z,2.03
2018-12-11T13:34:11.430Z,4.90
2018-12-11T13:36:42.308Z,6.20
2018-12-11T13:39:14.149Z,7.43
2018-12-11T13:41:45.194Z,4.10
2018-12-11T13:44:16.097Z,3.30
2018-12-11T13:46:49.778Z,5.70
2018-12-11T13:49:20.683Z,2.10
2018-12-11T13:51:51.823Z,2.90
2018-12-11T13:54:25.482Z,3.70
2018-12-11T13:56:56.619Z,3.83
2018-12-11T13:59:27.295Z,2.40
2018-12-11T14:01:58.437Z,5.77
2018-12-11T14:04:29.255Z,5.10
2018-12-11T14:07:02.657Z,7.80
2018-12-11T14:09:37.275Z,2.53
2018-12-11T14:12:09.447Z,2.30
2018-12-11T14:14:40.288Z,1.93
2018-12-11T14:19:43.197Z,2.00
2018-12-11T14:22:16.986Z,3.73
2018-12-11T14:24:45.944Z,4.47
2018-12-11T14:27:13.560Z,2.20
2018-12-11T14:29:47.225Z,4.17
2018-12-11T14:32:18.435Z,5.80
2018-12-11T14:34:49.152Z,2.23
2018-12-11T14:37:22.878Z,6.23
2018-12-11T14:39:56.555Z,7.30
2018-12-11T14:42:27.813Z,5.67
2018-12-11T14:44:59.029Z,5.17
2018-12-11T14:47:30.049Z,6.20
2018-12-11T14:49:58.877Z,1.70
2018-12-11T14:52:32.774Z,4.33
2018-12-11T14:57:53.381Z,3.77
2018-12-11T15:00:20.971Z,3.90
2018-12-11T15:02:48.758Z,5.40
2018-12-11T15:05:16.421Z,1.90
2018-12-11T15:07:44.108Z,4.23
2018-12-11T15:10:11.780Z,3.57
2018-12-11T15:12:39.655Z,4.03
2018-12-11T15:15:07.910Z,1.60
2018-12-11T15:17:35.508Z,2.10
2018-12-11T15:20:03.203Z,4.10
2018-12-11T15:22:30.795Z,1.20
2018-12-11T15:24:58.405Z,4.00
2018-12-11T15:27:25.995Z,1.10
2018-12-11T15:29:53.600Z,1.33
2018-12-11T15:32:21.190Z,1.33
2018-12-11T15:34:48.798Z,1.23
2018-12-11T15:37:16.386Z,2.37
2018-12-11T15:39:43.996Z,1.60
2018-12-11T15:42:11.584Z,1.47
2018-12-11T15:44:39.199Z,0.80
2018-12-11T15:47:06.788Z,1.40
2018-12-11T15:49:34.403Z,2.97
2018-12-11T15:52:01.988Z,1.93
2018-12-11T15:54:29.598Z,2.13
2018-12-11T15:56:57.470Z,2.43
2018-12-11T15:59:25.082Z,2.30
2018-12-11T16:01:52.715Z,2.00
2018-12-11T16:04:20.328Z,3.07
2018-12-11T16:06:47.912Z,1.87
2018-12-11T16:09:15.562Z,1.90
2018-12-11T16:11:43.150Z,3.00
2018-12-11T16:14:10.742Z,1.87
2018-12-11T16:16:38.349Z,2.03
2018-12-11T16:19:05.938Z,2.03
2018-12-11T16:21:33.551Z,3.70
2018-12-11T16:24:01.147Z,2.20
2018-12-11T16:26:28.754Z,2.43
2018-12-11T16:28:56.344Z,1.83
2018-12-11T16:31:23.959Z,2.93
2018-12-11T16:33:51.547Z,3.40
2018-12-11T16:36:19.159Z,1.40
2018-12-11T16:38:46.748Z,1.77
2018-12-11T16:41:14.357Z,2.27
2018-12-11T16:43:41.942Z,4.47
2018-12-11T16:46:09.560Z,3.70
2018-12-11T16:48:37.148Z,2.80
2018-12-11T16:51:04.763Z,1.53
2018-12-11T16:53:32.350Z,1.90
2018-12-11T16:55:59.964Z,2.77
2018-12-11T16:58:27.551Z,2.43
2018-12-11T17:00:55.159Z,3.23
2018-12-11T17:03:22.753Z,3.43
2018-12-11T17:05:50.364Z,2.30
2018-12-11T17:08:17.959Z,1.20
2018-12-11T17:10:45.573Z,4.83
2018-12-11T17:13:13.161Z,1.17
2018-12-11T17:15:40.951Z,1.47
2018-12-11T17:18:08.533Z,1.57
2018-12-11T17:20:36.424Z,2.20
2018-12-11T17:23:04.013Z,1.20
2018-12-11T17:25:31.624Z,2.20
2018-12-11T17:27:59.211Z,4.70
2018-12-11T17:30:26.820Z,1.67
2018-12-11T17:32:54.407Z,1.50
2018-12-11T17:35:22.019Z,1.50
2018-12-11T17:37:49.610Z,3.03
2018-12-11T17:40:17.243Z,3.63
2018-12-11T17:42:44.829Z,1.63
2018-12-11T17:45:12.418Z,2.50
2018-12-11T17:47:40.026Z,2.60
2018-12-11T17:50:07.799Z,2.23
2018-12-11T17:52:35.424Z,2.63
2018-12-11T17:55:03.148Z,1.40
2018-12-11T17:57:30.760Z,2.23
2018-12-11T17:59:58.350Z,2.10
2018-12-11T18:02:26.646Z,2.70
2018-12-11T18:04:54.236Z,1.63
2018-12-11T18:07:21.852Z,2.30
2018-12-11T18:09:49.439Z,2.60
2018-12-11T18:12:17.048Z,2.40
2018-12-11T18:14:44.629Z,2.50
2018-12-11T18:17:12.240Z,2.20
2018-12-11T18:19:39.838Z,1.57
2018-12-11T18:22:07.464Z,1.40
2018-12-11T18:24:35.058Z,2.93
2018-12-11T18:27:02.645Z,2.13
2018-12-11T18:29:30.259Z,2.03
2018-12-11T18:31:57.927Z,1.60
2018-12-11T18:34:25.830Z,2.10
2018-12-11T18:36:53.605Z,1.57
2018-12-11T18:39:21.224Z,1.40
2018-12-11T18:41:48.815Z,2.13
2018-12-11T18:44:16.432Z,1.60
2018-12-11T18:46:44.027Z,1.73
2018-12-11T18:49:11.644Z,4.73
2018-12-11T18:51:39.226Z,2.43
2018-12-11T18:54:06.835Z,3.70
2018-12-11T18:56:34.425Z,5.37
2018-12-11T18:59:02.044Z,2.17
2018-12-11T19:01:29.631Z,1.70
2018-12-11T19:03:57.256Z,1.33
2018-12-11T19:06:24.845Z,1.33
2018-12-11T19:08:52.451Z,2.67
2018-12-11T19:11:20.053Z,1.70
2018-12-11T19:13:47.659Z,2.70
2018-12-11T19:16:15.246Z,1.70
2018-12-11T19:18:42.859Z,1.33
2018-12-11T19:21:10.452Z,2.33
2018-12-11T19:23:38.904Z,3.57
2018-12-11T19:26:06.676Z,1.70
2018-12-11T19:28:34.408Z,6.10
2018-12-11T19:31:02.014Z,2.60
2018-12-11T19:33:29.626Z,1.40
2018-12-11T19:35:57.212Z,2.30
2018-12-11T19:38:24.821Z,1.93
2018-12-11T19:40:52.406Z,2.17
2018-12-11T19:43:20.027Z,2.60
2018-12-11T19:45:47.618Z,1.90
2018-12-11T19:48:15.382Z,2.10
2018-12-11T19:50:42.965Z,2.13
2018-12-11T19:53:10.578Z,1.60
2018-12-11T19:55:38.179Z,2.40
2018-12-11T19:58:05.798Z,1.80
2018-12-11T20:00:33.411Z,2.80
2018-12-11T20:03:00.999Z,2.50
2018-12-11T20:05:28.695Z,2.63
2018-12-11T20:07:56.284Z,2.27
2018-12-11T20:10:25.868Z,3.10
2018-12-11T20:12:53.446Z,2.00
2018-12-11T20:15:21.105Z,1.70
2018-12-11T20:17:48.701Z,1.60
2018-12-11T20:20:26.376Z,1.57
2018-12-11T20:22:53.963Z,1.53
2018-12-11T20:25:21.612Z,2.70
2018-12-11T20:27:49.202Z,1.50
2018-12-11T20:30:16.811Z,3.37
2018-12-11T20:32:44.409Z,1.60
2018-12-11T20:35:12.034Z,1.90
2018-12-11T20:37:39.619Z,1.70
2018-12-11T20:40:07.797Z,10.10
2018-12-11T20:42:35.378Z,2.07
2018-12-11T20:45:03.163Z,2.10
2018-12-11T20:47:30.758Z,2.67
2018-12-11T20:49:58.343Z,3.03
2018-12-11T20:52:25.946Z,1.70
2018-12-11T20:54:53.541Z,1.97
2018-12-11T20:57:21.583Z,3.27
2018-12-11T20:59:49.234Z,2.93
2018-12-11T21:02:16.912Z,2.40
2018-12-11T21:04:44.565Z,3.03
2018-12-11T21:07:12.182Z,2.00
2018-12-11T21:09:40.102Z,2.13
2018-12-11T21:12:07.872Z,1.83
2018-12-11T21:14:35.453Z,1.60
2018-12-11T21:17:03.060Z,1.87
2018-12-11T21:19:30.645Z,1.90
2018-12-11T21:21:58.251Z,2.10
2018-12-11T21:24:25.938Z,2.83
2018-12-11T21:26:53.926Z,2.93
2018-12-11T21:29:21.514Z,3.00
2018-12-11T21:31:49.119Z,2.00
2018-12-11T21:34:16.711Z,4.77
2018-12-11T21:36:44.335Z,2.00
2018-12-11T21:39:11.995Z,2.87
2018-12-11T21:41:39.651Z,3.80
2018-12-11T21:44:07.238Z,2.13
2018-12-11T21:46:34.821Z,2.00
2018-12-11T21:49:02.428Z,3.90
2018-12-11T21:51:30.012Z,1.97
2018-12-11T21:53:57.620Z,3.10
2018-12-11T21:56:25.208Z,1.80
2018-12-11T21:58:52.818Z,2.53
2018-12-11T22:01:20.408Z,2.37
2018-12-11T22:03:48.013Z,1.63
2018-12-11T22:06:15.787Z,2.00
2018-12-11T22:08:43.478Z,3.17
2018-12-11T22:11:11.136Z,2.10
2018-12-11T22:13:38.810Z,2.23
2018-12-11T22:16:06.395Z,2.00
2018-12-11T22:18:33.999Z,2.40
2018-12-11T22:21:01.591Z,2.60
2018-12-11T22:23:29.285Z,2.90
2018-12-11T22:25:56.934Z,2.33
2018-12-11T22:28:24.548Z,3.37
2018-12-11T22:30:52.143Z,2.83
2018-12-11T22:33:19.756Z,2.80
2018-12-11T22:35:47.433Z,2.80
2018-12-11T22:38:15.044Z,2.23
2018-12-11T22:40:42.631Z,2.33
2018-12-11T22:43:10.249Z,2.47
2018-12-11T22:45:37.835Z,5.77
2018-12-11T22:48:05.440Z,2.77
2018-12-11T22:50:33.104Z,4.00
2018-12-11T22:53:00.715Z,3.53
2018-12-11T22:55:28.316Z,2.93
2018-12-11T22:57:55.930Z,4.40
2018-12-11T23:00:23.514Z,3.10
2018-12-11T23:02:51.098Z,4.30
2018-12-11T23:05:18.711Z,4.87
2018-12-11T23:07:46.302Z,3.33
2018-12-11T23:10:13.910Z,3.27
2018-12-11T23:12:41.499Z,3.50
2018-12-11T23:15:09.179Z,2.83
2018-12-11T23:17:36.768Z,3.07
2018-12-11T23:20:04.634Z,2.60
2018-12-11T23:22:32.223Z,1.93
2018-12-11T23:25:00.035Z,2.20
2018-12-11T23:27:27.627Z,1.80
2018-12-11T23:29:55.232Z,2.00
2018-12-11T23:32:22.819Z,2.07
2018-12-11T23:34:52.216Z,2.87
2018-12-11T23:37:19.805Z,6.77
2018-12-11T23:39:47.411Z,3.53
2018-12-11T23:42:14.999Z,1.97
2018-12-11T23:44:42.603Z,2.27
2018-12-11T23:47:10.267Z,2.20
2018-12-11T23:49:37.879Z,12.80
2018-12-11T23:52:05.465Z,2.50
2018-12-11T23:54:33.075Z,2.70
2018-12-11T23:57:00.663Z,2.17
2018-12-11T23:59:29.275Z,2.33
